Time;durP1;ratioP1;P1;durP2;ratioP2;P2;SDS_P1;SDS_P2;PMS_P1;PMS_P2;Temp;Humidity;BMP_temperature;BMP_pressure;BME280_temperature;BME280_humidity;BME280_pressure;Samples;Min_cycle;Max_cycle;Signal;HPM_P1;HPM_P2
2023/07/18 00:03:42;;;;;;;6.10;4.00;;;;;;;17.31;100.00;99086.46;272096;1268;23138;-80
2023/07/18 00:09:45;;;;;;;7.60;4.30;;;;;;;17.25;100.00;99088.13;271147;1269;22542;-80
2023/07/18 00:15:46;;;;;;;7.40;4.20;;;;;;;17.16;100.00;99097.11;271332;1269;23977;-79
2023/07/18 00:21:48;;;;;;;7.00;4.20;;;;;;;17.09;100.00;99099.65;271428;1269;22207;-80
2023/07/18 00:27:58;;;;;;;8.40;3.90;;;;;;;17.09;100.00;99096.89;271481;1263;23234;-80
2023/07/18 00:34:03;;;;;;;8.20;4.80;;;;;;;17.07;100.00;99100.31;270983;1267;22574;-79
2023/07/18 00:40:19;;;;;;;10.10;4.70;;;;;;;17.02;100.00;99100.53;271500;1267;22362;-80
2023/07/18 00:46:21;;;;;;;6.70;4.10;;;;;;;16.93;100.00;99103.49;271620;1269;23568;-80
2023/07/18 00:52:43;;;;;;;9.00;4.50;;;;;;;16.92;100.00;99109.83;273235;1269;22148;-79
2023/07/18 00:58:45;;;;;;;7.20;4.40;;;;;;;16.87;100.00;99108.54;273686;1269;22387;-81
2023/07/18 01:04:47;;;;;;;9.30;4.80;;;;;;;16.79;100.00;99105.48;273060;1269;22596;-80
2023/07/18 01:10:50;;;;;;;9.20;4.50;;;;;;;16.79;100.00;99105.24;271922;1254;22560;-80
2023/07/18 01:16:53;;;;;;;6.80;4.20;;;;;;;16.79;100.00;99099.80;271484;1269;22527;-80
2023/07/18 01:22:59;;;;;;;8.90;4.90;;;;;;;16.78;100.00;99096.33;271321;1263;22601;-80
2023/07/18 01:29:01;;;;;;;11.00;4.50;;;;;;;16.72;100.00;99089.55;270616;1260;22531;-78
2023/07/18 01:35:06;;;;;;;6.40;4.80;;;;;;;16.67;100.00;99087.55;271077;1269;22199;-78
2023/07/18 01:41:42;;;;;;;8.80;4.80;;;;;;;16.46;100.00;99077.98;269964;1269;24247;-79
2023/07/18 01:48:05;;;;;;;12.30;4.60;;;;;;;16.43;100.00;99089.70;270567;1269;22239;-78
2023/07/18 01:54:29;;;;;;;9.00;4.50;;;;;;;16.41;100.00;99091.29;273552;1269;23267;-79
2023/07/18 02:00:31;;;;;;;11.20;4.40;;;;;;;16.40;100.00;99100.70;270494;1268;22527;-81
2023/07/18 02:06:32;;;;;;;13.90;5.10;;;;;;;16.43;100.00;99104.14;269281;1269;22942;-79
2023/07/18 02:12:44;;;;;;;10.00;4.40;;;;;;;16.41;100.00;99107.31;269246;1269;22310;-78
2023/07/18 02:19:05;;;;;;;10.30;4.00;;;;;;;16.34;100.00;99109.59;270240;1268;22799;-78
2023/07/18 02:25:08;;;;;;;8.80;4.60;;;;;;;16.32;100.00;99112.85;273612;1267;22405;-79
2023/07/18 02:31:31;;;;;;;5.10;4.30;;;;;;;16.31;100.00;99121.63;273648;1269;23709;-80
2023/07/18 02:37:44;;;;;;;7.90;3.90;;;;;;;16.26;100.00;99145.56;273580;1269;22925;-80
2023/07/18 02:43:46;;;;;;;7.10;4.50;;;;;;;16.23;100.00;99156.89;273758;1267;22277;-80
2023/07/18 02:49:49;;;;;;;10.70;4.80;;;;;;;16.09;100.00;99171.30;273262;1269;23121;-79
2023/07/18 02:56:00;;;;;;;5.50;4.50;;;;;;;16.05;100.00;99188.14;273701;1268;22193;-79
2023/07/18 03:02:05;;;;;;;6.50;4.70;;;;;;;15.91;100.00;99201.17;273118;1268;22533;-80
2023/07/18 03:08:29;;;;;;;8.00;4.90;;;;;;;15.80;100.00;99209.69;271528;1269;22324;-78
2023/07/18 03:14:31;;;;;;;8.70;5.60;;;;;;;15.86;100.00;99216.42;268115;1255;5439558;-79
2023/07/18 03:20:33;;;;;;;12.60;7.60;;;;;;;15.96;100.00;99224.73;273531;1266;22830;-79
2023/07/18 03:26:36;;;;;;;11.60;6.70;;;;;;;16.07;100.00;99237.52;273583;1266;22399;-81
2023/07/18 03:32:42;;;;;;;13.00;7.00;;;;;;;16.20;100.00;99250.59;273618;1268;22434;-79
2023/07/18 03:38:44;;;;;;;15.50;9.80;;;;;;;16.29;100.00;99265.60;273581;1262;22350;-80
2023/07/18 03:44:45;;;;;;;18.60;10.40;;;;;;;16.39;100.00;99284.15;273439;1269;23101;-79
2023/07/18 03:50:47;;;;;;;15.40;10.20;;;;;;;16.49;100.00;99296.81;272464;1260;25495;-80
2023/07/18 03:57:19;;;;;;;16.60;9.80;;;;;;;16.55;100.00;99321.56;273289;1268;22439;-80
2023/07/18 04:03:21;;;;;;;19.80;12.20;;;;;;;16.62;100.00;99345.98;273310;1269;22198;-82
2023/07/18 04:09:32;;;;;;;20.10;12.30;;;;;;;16.76;100.00;99359.60;273434;1269;22053;-80
2023/07/18 04:15:46;;;;;;;14.50;9.60;;;;;;;16.86;100.00;99366.80;273221;1265;22494;-83
2023/07/18 04:21:47;;;;;;;16.80;10.00;;;;;;;16.94;100.00;99380.23;273222;1267;22397;-80
2023/07/18 04:27:49;;;;;;;12.90;8.40;;;;;;;16.99;100.00;99392.44;272372;1269;22240;-79
2023/07/18 04:33:51;;;;;;;6.90;5.80;;;;;;;17.03;100.00;99405.20;271077;1259;22635;-80
2023/07/18 04:39:52;;;;;;;12.20;6.50;;;;;;;17.03;100.00;99419.52;271020;1268;22242;-80
2023/07/18 04:46:14;;;;;;;10.20;5.60;;;;;;;17.08;100.00;99429.91;272293;1268;23232;-79
2023/07/18 04:52:16;;;;;;;11.20;5.80;;;;;;;17.30;100.00;99428.06;273558;1268;22369;-79
2023/07/18 04:58:19;;;;;;;11.90;5.30;;;;;;;17.46;100.00;99426.04;273396;1269;22442;-78
2023/07/18 05:04:21;;;;;;;8.70;5.90;;;;;;;17.57;100.00;99427.67;273481;1269;22410;-79
2023/07/18 05:10:36;;;;;;;8.90;6.30;;;;;;;17.64;100.00;99423.08;273394;1261;22232;-79
2023/07/18 05:16:38;;;;;;;10.10;6.40;;;;;;;17.69;100.00;99433.88;273091;1269;22189;-79
2023/07/18 05:22:41;;;;;;;12.20;6.80;;;;;;;17.72;100.00;99448.23;273267;1269;22666;-78
2023/07/18 05:28:43;;;;;;;11.60;6.60;;;;;;;17.86;100.00;99456.95;273466;1269;23876;-79
2023/07/18 05:34:44;;;;;;;11.30;6.90;;;;;;;18.02;100.00;99463.59;273504;1258;23552;-79
2023/07/18 05:41:10;;;;;;;12.00;6.30;;;;;;;18.18;100.00;99470.98;273295;1269;22271;-79
2023/07/18 05:47:52;;;;;;;9.70;5.70;;;;;;;18.33;100.00;99478.09;272940;1260;22321;-78
2023/07/18 05:54:08;;;;;;;10.40;5.60;;;;;;;18.39;100.00;99487.78;273424;1268;22483;-79
2023/07/18 06:00:11;;;;;;;10.50;5.30;;;;;;;18.41;100.00;99488.72;273365;1266;22191;-78
2023/07/18 06:06:53;;;;;;;14.70;6.10;;;;;;;18.43;100.00;99491.68;272192;1269;22257;-80
2023/07/18 06:12:54;;;;;;;8.70;5.80;;;;;;;18.49;100.00;99500.65;273032;1269;22372;-80
2023/07/18 06:18:56;;;;;;;8.40;6.30;;;;;;;18.55;100.00;99504.45;273365;1269;23349;-78
2023/07/18 06:24:58;;;;;;;14.80;6.00;;;;;;;18.63;100.00;99506.71;272432;1259;22259;-79
2023/07/18 06:31:00;;;;;;;9.90;5.90;;;;;;;18.72;100.00;99514.29;272931;1269;22893;-82
2023/07/18 06:37:02;;;;;;;8.70;4.70;;;;;;;18.78;100.00;99524.59;273455;1269;22577;-79
2023/07/18 06:43:44;;;;;;;14.30;4.70;;;;;;;18.91;100.00;99527.89;272210;1265;22415;-80
2023/07/18 06:50:11;;;;;;;9.00;5.10;;;;;;;19.07;100.00;99536.38;273370;1269;22428;-78
2023/07/18 06:56:13;;;;;;;8.60;3.90;;;;;;;19.29;100.00;99543.20;273234;1259;23900;-79
2023/07/18 07:02:15;;;;;;;6.50;3.40;;;;;;;19.73;100.00;99543.22;273396;1268;22438;-82
2023/07/18 07:08:19;;;;;;;5.80;3.90;;;;;;;20.33;100.00;99538.23;273412;1267;22435;-78
2023/07/18 07:14:51;;;;;;;8.10;3.30;;;;;;;20.99;100.00;99537.09;272648;1258;22350;-79
2023/07/18 07:21:16;;;;;;;7.10;3.50;;;;;;;21.61;99.92;99533.82;273084;1260;22395;-80
2023/07/18 07:27:19;;;;;;;8.20;2.90;;;;;;;22.11;98.40;99536.11;273294;1262;22525;-78
2023/07/18 07:33:43;;;;;;;6.90;3.00;;;;;;;22.66;95.77;99538.41;271370;1256;22385;-80
2023/07/18 07:39:46;;;;;;;6.40;3.20;;;;;;;22.89;92.87;99533.99;273346;1259;23651;-79
2023/07/18 07:45:48;;;;;;;5.90;3.50;;;;;;;23.07;92.53;99538.38;272839;1267;23371;-79
2023/07/18 07:51:49;;;;;;;4.90;3.10;;;;;;;23.17;91.28;99546.54;273486;1256;22316;-80
2023/07/18 07:57:52;;;;;;;6.00;3.00;;;;;;;23.25;89.88;99555.31;273103;1267;22531;-78
2023/07/18 08:03:54;;;;;;;6.00;3.50;;;;;;;23.15;88.14;99552.16;273006;1265;22493;-79
2023/07/18 08:09:58;;;;;;;4.90;3.10;;;;;;;23.04;86.27;99544.78;273388;1267;22447;-79
2023/07/18 08:15:59;;;;;;;9.10;3.30;;;;;;;23.14;85.91;99543.43;273515;1256;22346;-79
2023/07/18 08:22:02;;;;;;;6.00;3.40;;;;;;;23.23;85.19;99541.01;273575;1267;22434;-77
2023/07/18 08:28:44;;;;;;;6.30;3.40;;;;;;;23.25;83.27;99539.92;273462;1267;23579;-80
2023/07/18 08:34:46;;;;;;;7.40;3.30;;;;;;;23.14;81.57;99538.73;273340;1267;22481;-78
2023/07/18 08:41:08;;;;;;;7.20;3.00;;;;;;;23.14;80.96;99537.52;273613;1266;23088;-80
2023/07/18 08:47:12;;;;;;;7.90;3.30;;;;;;;23.24;79.92;99535.80;273277;1260;22646;-79
2023/07/18 08:53:13;;;;;;;6.70;3.20;;;;;;;23.07;78.84;99536.95;273511;1259;22191;-78
2023/07/18 08:59:15;;;;;;;10.00;3.40;;;;;;;23.13;78.71;99538.27;273595;1267;22378;-79
2023/07/18 09:05:47;;;;;;;6.10;3.00;;;;;;;23.19;77.89;99536.73;272380;1259;22204;-78
2023/07/18 09:11:58;;;;;;;5.00;2.90;;;;;;;23.20;76.97;99537.26;272147;1268;25850;-79
2023/07/18 09:18:21;;;;;;;4.40;3.20;;;;;;;23.13;76.05;99533.34;272080;1267;22374;-77
2023/07/18 09:24:30;;;;;;;6.00;2.90;;;;;;;23.35;76.54;99526.02;270509;1267;23074;-79
2023/07/18 09:31:19;;;;;;;;;;;;;;;;;;;;;
2023/07/18 09:37:45;;;;;;;5.30;3.10;;;;;;;23.81;74.32;99511.55;273195;1266;23102;-78
2023/07/18 09:43:49;;;;;;;5.30;3.50;;;;;;;24.23;73.87;99504.65;273389;1266;23892;-78
2023/07/18 09:49:52;;;;;;;9.30;3.40;;;;;;;24.68;72.93;99499.95;271668;1266;22463;-78
2023/07/18 09:55:56;;;;;;;6.20;3.10;;;;;;;25.20;71.16;99498.65;273017;1256;22169;-80
2023/07/18 10:01:59;;;;;;;4.70;2.70;;;;;;;25.58;69.50;99491.91;273300;1267;22366;-79
2023/07/18 10:08:05;;;;;;;6.00;3.40;;;;;;;26.00;67.88;99477.35;273566;1256;22563;-78
2023/07/18 10:14:07;;;;;;;10.30;2.60;;;;;;;26.58;67.49;99474.52;273489;1266;22480;-78
2023/07/18 10:20:13;;;;;;;6.70;3.00;;;;;;;26.91;65.72;99472.10;272997;1256;22313;-80
2023/07/18 10:26:15;;;;;;;4.00;2.40;;;;;;;27.12;64.04;99460.41;273543;1267;22373;-77
2023/07/18 10:32:29;;;;;;;4.90;3.00;;;;;;;27.13;63.17;99451.97;272832;1259;22192;-78
2023/07/18 10:38:37;;;;;;;9.30;2.60;;;;;;;27.06;61.72;99445.29;273556;1266;22238;-79
2023/07/18 10:44:39;;;;;;;6.10;2.80;;;;;;;27.15;59.92;99444.13;273582;1267;23608;-78
2023/07/18 10:50:41;;;;;;;5.50;3.00;;;;;;;27.17;59.34;99432.98;273727;1257;22982;-78
2023/07/18 10:56:43;;;;;;;4.80;2.70;;;;;;;27.29;58.39;99428.78;271250;1267;22415;-77
2023/07/18 11:02:45;;;;;;;5.60;2.60;;;;;;;27.46;57.16;99419.61;271596;1266;22254;-78
2023/07/18 11:08:47;;;;;;;5.90;2.20;;;;;;;27.54;56.22;99410.09;271736;1268;22602;-78
2023/07/18 11:14:49;;;;;;;8.20;2.30;;;;;;;27.74;56.16;99407.26;273238;1260;22280;-79
2023/07/18 11:20:54;;;;;;;4.80;2.10;;;;;;;28.06;55.52;99399.63;273270;1267;22365;-78
2023/07/18 11:27:35;;;;;;;4.40;2.00;;;;;;;28.22;54.07;99389.48;273269;1267;22316;-77
2023/07/18 11:33:37;;;;;;;4.20;1.70;;;;;;;28.26;52.64;99385.82;273593;1268;22530;-78
2023/07/18 11:39:39;;;;;;;5.80;2.00;;;;;;;28.29;51.05;99384.02;273230;1267;22619;-78
2023/07/18 11:45:41;;;;;;;4.00;2.20;;;;;;;28.17;50.32;99370.45;273620;1256;22360;-80
2023/07/18 11:52:04;;;;;;;3.30;1.60;;;;;;;28.17;50.48;99357.02;273608;1263;22206;-79
2023/07/18 11:58:07;;;;;;;2.80;1.60;;;;;;;28.34;50.33;99355.36;273510;1269;22090;-79
2023/07/18 12:04:11;;;;;;;4.70;2.00;;;;;;;28.41;49.56;99348.61;273336;1266;23117;-79
2023/07/18 12:10:15;;;;;;;3.00;1.60;;;;;;;28.43;49.00;99350.75;273406;1269;23078;-79
2023/07/18 12:16:17;;;;;;;4.60;1.90;;;;;;;28.07;48.79;99350.20;273281;1268;22383;-79
2023/07/18 12:22:43;;;;;;;4.40;1.90;;;;;;;27.60;47.72;99352.36;272965;1267;22778;-79
2023/07/18 12:28:47;;;;;;;3.00;1.60;;;;;;;27.22;47.49;99343.70;272843;1269;22446;-77
2023/07/18 12:34:49;;;;;;;2.80;1.70;;;;;;;26.76;46.56;99330.45;273418;1267;23821;-77
2023/07/18 12:41:11;;;;;;;2.70;1.60;;;;;;;26.39;46.56;99327.60;273388;1267;23850;-78
2023/07/18 12:47:13;;;;;;;3.90;1.60;;;;;;;26.41;46.12;99322.60;273320;1259;22503;-78
2023/07/18 12:53:15;;;;;;;3.10;1.60;;;;;;;26.36;46.27;99318.14;272441;1269;22221;-79
2023/07/18 12:59:41;;;;;;;3.00;2.00;;;;;;;26.19;45.90;99313.73;271879;1266;22381;-79
2023/07/18 13:05:43;;;;;;;6.60;1.90;;;;;;;25.98;46.44;99312.36;273286;1267;22436;-77
2023/07/18 13:11:46;;;;;;;3.70;1.60;;;;;;;25.83;46.23;99307.58;273442;1267;22435;-78
2023/07/18 13:17:47;;;;;;;3.70;1.70;;;;;;;25.74;45.91;99306.17;272457;1269;22605;-78
2023/07/18 13:23:50;;;;;;;3.80;1.90;;;;;;;25.67;47.41;99300.02;270580;1267;22573;-77
2023/07/18 13:30:13;;;;;;;5.40;2.40;;;;;;;25.48;45.99;99290.77;271303;1267;23904;-77
2023/07/18 13:36:15;;;;;;;5.80;1.70;;;;;;;25.31;46.12;99288.23;271249;1266;22418;-78
2023/07/18 13:42:17;;;;;;;4.80;2.00;;;;;;;25.23;46.26;99279.11;272082;1266;23588;-78
2023/07/18 13:48:19;;;;;;;5.10;1.80;;;;;;;25.20;46.26;99276.77;273519;1266;22452;-78
2023/07/18 13:54:21;;;;;;;7.30;1.80;;;;;;;25.14;46.31;99265.59;273674;1266;22382;-78
2023/07/18 14:00:23;;;;;;;3.10;1.60;;;;;;;25.04;46.71;99251.38;273576;1267;22198;-78
2023/07/18 14:06:26;;;;;;;4.00;2.00;;;;;;;24.97;46.75;99243.96;273412;1256;22899;-78
2023/07/18 14:12:27;;;;;;;3.10;1.80;;;;;;;24.94;46.78;99235.35;273371;1269;22326;-78
2023/07/18 14:18:29;;;;;;;4.50;1.80;;;;;;;24.89;46.52;99223.38;273445;1269;22177;-78
2023/07/18 14:24:31;;;;;;;4.30;1.80;;;;;;;24.83;47.40;99216.48;273516;1269;22189;-78
2023/07/18 14:30:34;;;;;;;3.40;1.70;;;;;;;24.79;46.86;99211.43;273157;1270;22386;-77
2023/07/18 14:37:09;;;;;;;4.40;1.40;;;;;;;24.77;46.20;99207.69;273333;1269;22244;-78
2023/07/18 14:43:11;;;;;;;3.90;1.60;;;;;;;24.69;46.98;99212.66;273230;1269;22385;-79
2023/07/18 14:49:13;;;;;;;5.80;1.80;;;;;;;24.59;46.62;99219.20;273274;1267;22377;-78
2023/07/18 14:55:16;;;;;;;4.70;2.00;;;;;;;24.57;46.53;99217.58;273473;1267;22236;-79
2023/07/18 15:01:17;;;;;;;2.90;1.80;;;;;;;24.55;47.28;99214.97;273150;1269;23926;-77
2023/07/18 15:07:19;;;;;;;3.90;2.00;;;;;;;24.52;47.10;99207.96;271374;1268;22464;-78
2023/07/18 15:13:21;;;;;;;3.00;1.60;;;;;;;24.52;47.26;99200.23;271461;1268;22528;-78
2023/07/18 15:19:22;;;;;;;4.10;1.90;;;;;;;24.50;46.76;99188.25;273104;1267;162421;-78
2023/07/18 15:26:05;;;;;;;3.40;1.80;;;;;;;24.46;46.87;99180.31;273296;1270;22398;-78
2023/07/18 15:32:07;;;;;;;5.20;1.90;;;;;;;24.38;46.42;99170.35;272074;1269;24242;-81
2023/07/18 15:38:47;;;;;;;3.40;1.90;;;;;;;24.32;46.96;99170.06;270962;1260;22534;-77
2023/07/18 15:44:49;;;;;;;3.30;1.70;;;;;;;24.24;47.09;99171.85;270773;1269;22667;-78
2023/07/18 15:50:51;;;;;;;3.80;1.90;;;;;;;24.19;47.05;99158.16;270993;1258;22527;-79
2023/07/18 15:56:53;;;;;;;6.80;1.80;;;;;;;24.15;47.09;99144.08;271988;1269;22443;-77
2023/07/18 16:02:54;;;;;;;2.50;1.90;;;;;;;24.12;46.90;99131.66;271655;1267;22506;-78
2023/07/18 16:08:56;;;;;;;3.00;1.60;;;;;;;24.05;47.19;99115.23;272888;1269;23529;-78
2023/07/18 16:14:58;;;;;;;2.50;1.70;;;;;;;23.93;47.62;99106.08;273308;1266;23355;-78
2023/07/18 16:21:00;;;;;;;4.20;1.90;;;;;;;23.83;48.48;99087.54;273201;1260;22353;-77
2023/07/18 16:27:02;;;;;;;2.70;1.60;;;;;;;23.77;48.04;99080.44;273342;1269;22385;-78
2023/07/18 16:33:04;;;;;;;3.50;2.00;;;;;;;23.71;48.59;99089.64;273328;1269;22544;-78
2023/07/18 16:39:05;;;;;;;3.30;1.90;;;;;;;23.60;48.96;99090.25;273416;1270;23395;-78
2023/07/18 16:45:08;;;;;;;2.30;1.50;;;;;;;23.51;49.87;99083.11;273495;1257;22174;-79
2023/07/18 16:51:12;;;;;;;3.50;1.70;;;;;;;23.40;49.99;99085.60;272943;1270;25397;-77
2023/07/18 16:57:14;;;;;;;2.90;1.70;;;;;;;23.31;50.12;99088.74;271684;1263;24359;-78
2023/07/18 17:03:19;;;;;;;4.50;2.00;;;;;;;23.30;50.29;99096.94;271358;1269;22559;-81
2023/07/18 17:09:21;;;;;;;4.60;1.60;;;;;;;23.25;50.79;99095.29;273282;1264;22357;-77
2023/07/18 17:15:22;;;;;;;4.20;1.90;;;;;;;23.13;50.71;99105.78;273428;1269;22588;-77
2023/07/18 17:21:24;;;;;;;4.40;1.90;;;;;;;23.03;51.25;99114.42;273522;1264;22217;-77
2023/07/18 17:27:27;;;;;;;4.90;1.70;;;;;;;22.94;51.57;99113.26;273475;1256;22198;-77
2023/07/18 17:33:30;;;;;;;5.30;1.80;;;;;;;22.81;51.78;99107.98;273633;1256;22369;-77
2023/07/18 17:39:32;;;;;;;7.50;2.20;;;;;;;22.70;52.06;99099.47;273435;1259;22455;-77
2023/07/18 17:45:34;;;;;;;7.30;2.00;;;;;;;22.58;52.53;99088.18;273075;1269;22213;-78
2023/07/18 17:51:36;;;;;;;8.80;2.50;;;;;;;22.42;53.57;99076.71;273425;1259;22160;-77
2023/07/18 17:58:02;;;;;;;5.00;2.00;;;;;;;22.39;54.52;99072.10;273373;1268;23707;-77
2023/07/18 18:04:06;;;;;;;4.60;1.60;;;;;;;22.34;54.29;99060.56;272159;1269;23447;-79
2023/07/18 18:10:08;;;;;;;4.40;1.90;;;;;;;22.23;55.34;99046.30;271393;1269;23384;-78
2023/07/18 18:16:10;;;;;;;8.90;2.20;;;;;;;22.09;56.87;99051.81;271064;1260;22515;-79
2023/07/18 18:22:14;;;;;;;3.50;1.70;;;;;;;21.94;57.41;99047.70;272824;1260;22199;-77
2023/07/18 18:28:42;;;;;;;4.20;2.30;;;;;;;21.78;59.13;99057.33;273503;1264;22401;-78
2023/07/18 18:34:44;;;;;;;7.80;2.60;;;;;;;21.59;58.95;99051.63;273465;1269;23143;-78
2023/07/18 18:40:46;;;;;;;7.30;3.00;;;;;;;21.39;59.94;99053.30;273520;1269;22501;-78
2023/07/18 18:46:47;;;;;;;7.70;2.40;;;;;;;21.16;60.61;99048.30;273537;1269;23402;-78
2023/07/18 18:52:50;;;;;;;6.40;2.10;;;;;;;20.99;61.69;99040.86;273538;1269;22450;-77
2023/07/18 18:58:53;;;;;;;7.50;3.30;;;;;;;20.80;63.37;99054.02;273392;1253;22346;-77
2023/07/18 19:04:55;;;;;;;9.40;3.30;;;;;;;20.65;64.51;99062.36;273449;1263;22464;-77
2023/07/18 19:10:57;;;;;;;5.30;3.10;;;;;;;20.49;64.57;99062.16;273446;1257;22478;-77
2023/07/18 19:16:58;;;;;;;6.20;3.10;;;;;;;20.34;64.70;99066.48;265725;1267;10001445;-78
2023/07/18 19:23:00;;;;;;;3.80;2.90;;;;;;;20.21;66.37;99076.27;273460;1268;22234;-78
2023/07/18 19:29:02;;;;;;;6.50;3.30;;;;;;;19.98;66.42;99075.91;273235;1269;22184;-78
2023/07/18 19:35:05;;;;;;;10.00;2.80;;;;;;;19.77;66.51;99072.92;273482;1259;22439;-78
2023/07/18 19:41:07;;;;;;;5.50;2.80;;;;;;;19.62;67.29;99064.08;272750;1256;24365;-79
2023/07/18 19:47:09;;;;;;;8.50;2.80;;;;;;;19.46;68.17;99059.08;272458;1257;22263;-79
2023/07/18 19:53:12;;;;;;;10.10;4.10;;;;;;;19.30;69.44;99045.89;273511;1269;22193;-78
2023/07/18 19:59:14;;;;;;;8.20;3.40;;;;;;;19.15;69.41;99030.98;273324;1268;22409;-78
2023/07/18 20:05:15;;;;;;;7.30;4.20;;;;;;;18.99;70.38;99020.42;273423;1269;22380;-78
2023/07/18 20:11:17;;;;;;;6.80;3.80;;;;;;;18.71;71.15;99015.71;273465;1257;22242;-77
2023/07/18 20:17:19;;;;;;;7.90;3.50;;;;;;;18.49;71.96;99015.46;273426;1268;22382;-78
2023/07/18 20:23:21;;;;;;;13.50;7.30;;;;;;;18.35;73.36;99009.08;273204;1269;22242;-78
2023/07/18 20:29:25;;;;;;;13.80;6.60;;;;;;;18.28;73.98;99003.10;273479;1269;22461;-78
2023/07/18 20:35:30;;;;;;;17.00;9.90;;;;;;;18.09;73.72;99008.21;273373;1269;22926;-78
2023/07/18 20:41:32;;;;;;;14.50;8.20;;;;;;;17.86;74.71;99016.79;273366;1269;22218;-78
2023/07/18 20:47:34;;;;;;;11.40;6.80;;;;;;;17.76;75.77;99007.02;273360;1267;23585;-78
2023/07/18 20:53:35;;;;;;;8.40;4.80;;;;;;;17.72;76.44;98996.71;273390;1268;23418;-78
2023/07/18 20:59:37;;;;;;;9.20;4.50;;;;;;;17.48;76.50;98999.96;273364;1269;23582;-81
2023/07/18 21:05:39;;;;;;;9.80;4.40;;;;;;;17.38;77.46;99002.58;272230;1269;22421;-78
2023/07/18 21:11:45;;;;;;;10.60;4.30;;;;;;;17.36;77.85;99003.71;272731;1269;23554;-78
2023/07/18 21:17:47;;;;;;;7.60;3.80;;;;;;;17.30;79.32;99000.16;271919;1269;22204;-78
2023/07/18 21:23:49;;;;;;;7.80;4.30;;;;;;;17.17;79.60;98996.40;273282;1261;22318;-78
2023/07/18 21:29:53;;;;;;;9.50;4.10;;;;;;;17.07;80.29;98998.37;273501;1256;22947;-78
2023/07/18 21:35:56;;;;;;;11.00;3.40;;;;;;;16.93;80.80;98997.23;273506;1269;22491;-78
2023/07/18 21:41:57;;;;;;;6.40;4.00;;;;;;;16.78;81.47;98993.88;272638;1253;23952;-78
2023/07/18 21:47:59;;;;;;;8.00;4.20;;;;;;;16.68;81.88;98993.71;272385;1269;22439;-78
2023/07/18 21:54:00;;;;;;;6.30;3.80;;;;;;;16.58;82.73;98988.95;272307;1269;22549;-78
2023/07/18 22:00:05;;;;;;;7.70;4.40;;;;;;;16.42;83.21;98977.61;272141;1269;22382;-79
2023/07/18 22:06:27;;;;;;;9.80;4.10;;;;;;;16.27;83.76;98973.14;271836;1262;22220;-78
2023/07/18 22:12:30;;;;;;;9.70;4.30;;;;;;;16.19;84.25;98961.39;272871;1259;23601;-78
2023/07/18 22:18:34;;;;;;;9.90;3.90;;;;;;;16.11;84.80;98959.76;270784;1269;22246;-77
2023/07/18 22:24:35;;;;;;;12.30;4.60;;;;;;;15.99;85.60;98952.16;272518;1269;22609;-77
2023/07/18 22:30:37;;;;;;;8.90;4.80;;;;;;;15.89;85.98;98948.17;271646;1269;22520;-77
2023/07/18 22:36:39;;;;;;;12.90;5.30;;;;;;;15.85;86.31;98937.73;271240;1266;22370;-76
2023/07/18 22:42:40;;;;;;;9.90;5.00;;;;;;;15.80;86.56;98928.64;272502;1267;22440;-79
2023/07/18 22:48:43;;;;;;;9.80;4.40;;;;;;;15.81;87.63;98923.27;273632;1267;22389;-78
2023/07/18 22:54:46;;;;;;;12.30;4.40;;;;;;;15.75;87.88;98920.55;273438;1266;22428;-77
2023/07/18 23:00:48;;;;;;;7.20;4.70;;;;;;;15.67;88.42;98914.64;271354;1266;22415;-80
2023/07/18 23:06:50;;;;;;;6.60;4.40;;;;;;;15.61;88.74;98908.95;271882;1263;22361;-78
2023/07/18 23:12:52;;;;;;;7.80;4.10;;;;;;;15.61;89.40;98904.77;273598;1256;22349;-77
2023/07/18 23:18:54;;;;;;;7.30;4.20;;;;;;;15.57;89.96;98885.42;273607;1267;23921;-78
2023/07/18 23:24:56;;;;;;;8.10;4.50;;;;;;;15.56;90.22;98875.35;273513;1256;22460;-77
2023/07/18 23:30:58;;;;;;;8.10;4.60;;;;;;;15.58;91.00;98865.16;273435;1255;22365;-77
2023/07/18 23:37:00;;;;;;;6.30;4.30;;;;;;;15.56;91.44;98857.23;272965;1267;22424;-80
2023/07/18 23:43:04;;;;;;;8.50;4.80;;;;;;;15.58;91.98;98849.48;272823;1266;22422;-76
2023/07/18 23:49:07;;;;;;;10.50;4.70;;;;;;;15.58;91.94;98837.48;273415;1268;22067;-76
2023/07/18 23:55:09;;;;;;;11.10;5.00;;;;;;;15.51;92.22;98828.98;271850;1266;22545;-80
